Time;durP1;ratioP1;P1;durP2;ratioP2;P2;SDS_P1;SDS_P2;PMS_P1;PMS_P2;Temp;Humidity;BMP_temperature;BMP_pressure;BME280_temperature;BME280_humidity;BME280_pressure;Samples;Min_cycle;Max_cycle;Signal;HPM_P1;HPM_P2
2023/08/07 00:00:20;;;;;;;;;;;;;;;;;;4982999;28;19926;-57
2023/08/07 00:02:46;;;;;;;;;;;;;;;;;;4982218;28;20359;-57
2023/08/07 00:05:12;;;;;;;;;;;;;;;;;;4983207;28;20347;-58
2023/08/07 00:07:37;;;;;;;;;;;;;;;;;;4982807;28;20272;-61
2023/08/07 00:10:03;;;;;;;;;;;;;;;;;;4982192;28;19926;-58
2023/08/07 00:12:29;;;;;;;;;;;;;;;;;;4983372;28;19925;-58
2023/08/07 00:14:55;;;;;;;;;;;;;;;;;;4982843;28;19930;-58
2023/08/07 00:17:21;;;;;;;;;;;;;;;;;;4982942;28;20275;-57
2023/08/07 00:19:47;;;;;;;;;;;;;;;;;;4983060;28;19926;-57
2023/08/07 00:22:13;;;;;;;;;;;;;;;;;;4982766;28;20016;-57
2023/08/07 00:24:39;;;;;;;;;;;;;;;;;;4982534;28;20488;-57
2023/08/07 00:27:06;;;;;;;;;;;;;;;;;;4982108;28;19926;-57
2023/08/07 00:29:33;;;;;;;;;;;;;;;;;;4982982;28;19926;-57
2023/08/07 00:31:59;;;;;;;;;;;;;;;;;;4982285;28;20027;-57
2023/08/07 00:34:25;;;;;;;;;;;;;;;;;;4983334;28;19973;-57
2023/08/07 00:36:51;;;;;;;;;;;;;;;;;;4983200;28;19926;-57
2023/08/07 00:39:16;;;;;;;;;;;;;;;;;;4983874;28;19930;-57
2023/08/07 00:41:42;;;;;;;;;;;;;;;;;;4968436;28;19980;-57
2023/08/07 00:44:08;;;;;;;;;;;;;;;;;;4986286;28;19926;-57
2023/08/07 00:46:35;;;;;;;;;;;;;;;;;;4985848;28;19930;-57
2023/08/07 00:49:01;;;;;;;;;;;;;;;;;;4986173;28;19945;-57
2023/08/07 00:51:26;;;;;;;;;;;;;;;;;;4985435;28;19996;-58
2023/08/07 00:53:52;;;;;;;;;;;;;;;;;;4985421;28;20331;-58
2023/08/07 00:56:18;;;;;;;;;;;;;;;;;;4985799;28;20769;-57
2023/08/07 00:58:44;;;;;;;;;;;;;;;;;;4985725;28;19925;-58
2023/08/07 01:01:10;;;;;;;;;;;;;;;;;;4986169;28;19933;-57
2023/08/07 01:03:36;;;;;;;;;;;;;;;;;;4984835;28;19998;-57
2023/08/07 01:06:02;;;;;;;;;;;;;;;;;;4985920;28;19931;-57
2023/08/07 01:08:28;;;;;;;;;;;;;;;;;;4986142;28;20402;-58
2023/08/07 01:10:54;;;;;;;;;;;;;;;;;;4983742;28;19948;-57
2023/08/07 01:13:20;;;;;;;;;;;;;;;;;;4985544;28;20016;-57
2023/08/07 01:15:46;;;;;;;;;;;;;;;;;;5062485;23;20044;-66
2023/08/07 01:18:12;;;;;;;;;;;;;;;;;;4992361;28;19983;-66
2023/08/07 01:20:38;;;;;;;;;;;;;;;;;;4991478;28;19930;-66
2023/08/07 01:23:03;;;;;;;;;;;;;;;;;;5004725;28;19965;-66
2023/08/07 01:25:29;;;;;;;;;;;;;;;;;;4999112;28;19955;-66
2023/08/07 01:27:55;;;;;;;;;;;;;;;;;;5003489;28;19925;-66
2023/08/07 01:30:21;;;;;;;;;;;;;;;;;;5003820;28;19929;-66
2023/08/07 01:32:47;;;;;;;;;;;;;;;;;;5003731;28;19925;-66
2023/08/07 01:35:13;;;;;;;;;;;;;;;;;;4998433;28;19972;-66
2023/08/07 01:37:39;;;;;;;;;;;;;;;;;;4996960;28;20007;-66
2023/08/07 01:40:05;;;;;;;;;;;;;;;;;;4989962;28;19933;-66
2023/08/07 01:42:32;;;;;;;;;;;;;;;;;;5003262;28;20070;-66
2023/08/07 01:44:58;;;;;;;;;;;;;;;;;;5004336;28;19933;-66
2023/08/07 01:47:24;;;;;;;;;;;;;;;;;;5005359;28;19925;-66
2023/08/07 01:49:49;;;;;;;;;;;;;;;;;;5003474;28;20473;-67
2023/08/07 01:52:15;;;;;;;;;;;;;;;;;;5003722;28;19925;-66
2023/08/07 01:54:41;;;;;;;;;;;;;;;;;;5004045;28;19932;-66
2023/08/07 01:57:07;;;;;;;;;;;;;;;;;;5004344;28;19925;-67
2023/08/07 01:59:33;;;;;;;;;;;;;;;;;;5003913;28;19987;-66
2023/08/07 02:01:59;;;;;;;;;;;;;;;;;;5004652;28;19926;-66
2023/08/07 02:04:25;;;;;;;;;;;;;;;;;;5003935;28;20437;-65
2023/08/07 02:06:51;;;;;;;;;;;;;;;;;;5004254;28;19992;-66
2023/08/07 02:09:17;;;;;;;;;;;;;;;;;;5003800;28;19930;-66
2023/08/07 02:11:44;;;;;;;;;;;;;;;;;;5004299;28;19929;-66
2023/08/07 02:14:10;;;;;;;;;;;;;;;;;;5003448;28;20669;-65
2023/08/07 02:16:36;;;;;;;;;;;;;;;;;;5003661;28;19926;-66
2023/08/07 02:19:02;;;;;;;;;;;;;;;;;;5004439;28;19930;-65
2023/08/07 02:21:28;;;;;;;;;;;;;;;;;;5004259;28;19984;-66
2023/08/07 02:23:54;;;;;;;;;;;;;;;;;;5003529;28;19929;-66
2023/08/07 02:26:20;;;;;;;;;;;;;;;;;;5004254;28;20337;-66
2023/08/07 02:28:46;;;;;;;;;;;;;;;;;;5003049;28;20431;-66
2023/08/07 02:31:12;;;;;;;;;;;;;;;;;;5003823;28;19932;-66
2023/08/07 02:33:38;;;;;;;;;;;;;;;;;;5004150;28;19925;-66
2023/08/07 02:36:04;;;;;;;;;;;;;;;;;;5004192;28;20383;-65
2023/08/07 02:38:30;;;;;;;;;;;;;;;;;;5002785;28;20015;-66
2023/08/07 02:40:56;;;;;;;;;;;;;;;;;;5003350;28;20008;-64
2023/08/07 02:43:22;;;;;;;;;;;;;;;;;;5004133;28;20409;-66
2023/08/07 02:45:48;;;;;;;;;;;;;;;;;;4969995;28;20077;-66
2023/08/07 02:48:13;;;;;;;;;;;;;;;;;;5003714;28;19926;-66
2023/08/07 02:50:39;;;;;;;;;;;;;;;;;;5004261;28;20286;-66
2023/08/07 02:53:05;;;;;;;;;;;;;;;;;;5002300;28;20390;-67
2023/08/07 02:55:31;;;;;;;;;;;;;;;;;;5003245;28;19944;-67
2023/08/07 02:57:57;;;;;;;;;;;;;;;;;;5003338;28;19925;-66
2023/08/07 03:00:23;;;;;;;;;;;;;;;;;;5011625;28;19935;-65
2023/08/07 03:02:49;;;;;;;;;;;;;;;;;;5008658;28;19973;-65
2023/08/07 03:05:15;;;;;;;;;;;;;;;;;;5003154;28;19931;-65
2023/08/07 03:07:41;;;;;;;;;;;;;;;;;;5003750;28;20004;-66
2023/08/07 03:10:07;;;;;;;;;;;;;;;;;;5002662;28;19939;-65
2023/08/07 03:12:33;;;;;;;;;;;;;;;;;;5003394;28;19929;-65
2023/08/07 03:14:59;;;;;;;;;;;;;;;;;;5003274;28;20341;-66
2023/08/07 03:17:25;;;;;;;;;;;;;;;;;;5002808;28;19953;-66
2023/08/07 03:19:50;;;;;;;;;;;;;;;;;;5003743;28;19933;-65
2023/08/07 03:22:16;;;;;;;;;;;;;;;;;;4995308;28;20383;-65
2023/08/07 03:24:42;;;;;;;;;;;;;;;;;;4997098;28;19929;-65
2023/08/07 03:27:08;;;;;;;;;;;;;;;;;;4997949;28;19940;-66
2023/08/07 03:29:34;;;;;;;;;;;;;;;;;;5002855;28;19926;-66
2023/08/07 03:32:00;;;;;;;;;;;;;;;;;;5003191;28;19932;-67
2023/08/07 03:34:26;;;;;;;;;;;;;;;;;;5003217;28;19925;-63
2023/08/07 03:36:52;;;;;;;;;;;;;;;;;;4986187;28;19940;-65
2023/08/07 03:39:18;;;;;;;;;;;;;;;;;;5002348;28;19925;-65
2023/08/07 03:41:44;;;;;;;;;;;;;;;;;;5002471;28;19930;-66
2023/08/07 03:44:10;;;;;;;;;;;;;;;;;;5003487;28;19922;-65
2023/08/07 03:46:36;;;;;;;;;;;;;;;;;;5002828;28;20363;-65
2023/08/07 03:49:02;;;;;;;;;;;;;;;;;;5003010;28;19987;-66
2023/08/07 03:51:29;;;;;;;;;;;;;;;;;;5014562;28;19921;-66
2023/08/07 03:53:55;;;;;;;;;;;;;;;;;;5002216;28;20306;-66
2023/08/07 03:56:21;;;;;;;;;;;;;;;;;;5002783;28;19921;-67
2023/08/07 03:58:49;;;;;;;;;;;;;;;;;;5002824;28;19959;-66
2023/08/07 04:01:15;;;;;;;;;;;;;;;;;;5002943;28;19925;-66
2023/08/07 04:03:41;;;;;;;;;;;;;;;;;;5003208;28;19922;-66
2023/08/07 04:06:07;;;;;;;;;;;;;;;;;;5002072;28;19929;-66
2023/08/07 04:08:33;;;;;;;;;;;;;;;;;;5002478;28;19921;-65
2023/08/07 04:10:59;;;;;;;;;;;;;;;;;;5003209;28;20040;-65
2023/08/07 04:13:25;;;;;;;;;;;;;;;;;;5004272;28;20302;-65
2023/08/07 04:15:51;;;;;;;;;;;;;;;;;;5006325;28;19926;-66
2023/08/07 04:18:17;;;;;;;;;;;;;;;;;;5006224;28;19936;-65
2023/08/07 04:20:43;;;;;;;;;;;;;;;;;;5006515;28;19930;-65
2023/08/07 04:23:08;;;;;;;;;;;;;;;;;;5005663;28;20012;-66
2023/08/07 04:25:34;;;;;;;;;;;;;;;;;;5006255;28;20272;-65
2023/08/07 04:28:00;;;;;;;;;;;;;;;;;;5006480;28;19925;-67
2023/08/07 04:30:26;;;;;;;;;;;;;;;;;;5005598;28;19932;-65
2023/08/07 04:32:52;;;;;;;;;;;;;;;;;;5007011;28;20016;-65
2023/08/07 04:35:18;;;;;;;;;;;;;;;;;;5006109;28;19926;-65
2023/08/07 04:37:44;;;;;;;;;;;;;;;;;;5005843;28;20347;-65
2023/08/07 04:40:10;;;;;;;;;;;;;;;;;;5005576;28;19925;-65
2023/08/07 04:42:36;;;;;;;;;;;;;;;;;;5005529;28;20452;-65
2023/08/07 04:45:02;;;;;;;;;;;;;;;;;;5005679;28;20481;-64
2023/08/07 04:47:28;;;;;;;;;;;;;;;;;;5006073;28;19972;-65
2023/08/07 04:49:54;;;;;;;;;;;;;;;;;;5006309;28;19992;-65
2023/08/07 04:52:19;;;;;;;;;;;;;;;;;;5005624;28;19969;-65
2023/08/07 04:54:45;;;;;;;;;;;;;;;;;;5004533;28;19932;-65
2023/08/07 04:57:11;;;;;;;;;;;;;;;;;;5006326;28;19925;-65
2023/08/07 04:59:37;;;;;;;;;;;;;;;;;;5005688;28;19932;-65
2023/08/07 05:02:03;;;;;;;;;;;;;;;;;;5005629;28;20334;-65
2023/08/07 05:04:29;;;;;;;;;;;;;;;;;;5005896;28;19929;-65
2023/08/07 05:06:55;;;;;;;;;;;;;;;;;;5005405;28;20008;-65
2023/08/07 05:09:21;;;;;;;;;;;;;;;;;;5004569;28;20029;-65
2023/08/07 05:11:48;;;;;;;;;;;;;;;;;;5005778;28;19932;-65
2023/08/07 05:14:14;;;;;;;;;;;;;;;;;;5005835;28;19934;-65
2023/08/07 05:16:40;;;;;;;;;;;;;;;;;;5005540;28;20516;-65
2023/08/07 05:19:06;;;;;;;;;;;;;;;;;;5004538;28;19933;-66
2023/08/07 05:21:32;;;;;;;;;;;;;;;;;;5005379;28;19925;-65
2023/08/07 05:23:58;;;;;;;;;;;;;;;;;;5004369;28;19925;-63
2023/08/07 05:26:23;;;;;;;;;;;;;;;;;;5005745;28;20028;-63
2023/08/07 05:28:49;;;;;;;;;;;;;;;;;;5005480;28;20008;-63
2023/08/07 05:31:15;;;;;;;;;;;;;;;;;;5004856;28;19979;-63
2023/08/07 05:33:41;;;;;;;;;;;;;;;;;;5004493;28;20555;-63
2023/08/07 05:36:07;;;;;;;;;;;;;;;;;;5005291;28;20558;-63
2023/08/07 05:38:33;;;;;;;;;;;;;;;;;;5004563;28;20011;-62
2023/08/07 05:40:59;;;;;;;;;;;;;;;;;;5004807;28;19936;-63
2023/08/07 05:43:25;;;;;;;;;;;;;;;;;;5004788;28;20005;-63
2023/08/07 05:45:51;;;;;;;;;;;;;;;;;;5004734;28;19926;-64
2023/08/07 05:48:17;;;;;;;;;;;;;;;;;;5004693;28;19972;-69
2023/08/07 05:50:43;;;;;;;;;;;;;;;;;;5004857;28;19929;-62
2023/08/07 05:53:09;;;;;;;;;;;;;;;;;;5004120;28;19932;-64
2023/08/07 05:55:34;;;;;;;;;;;;;;;;;;5004120;28;19926;-63
2023/08/07 05:58:00;;;;;;;;;;;;;;;;;;5004083;28;19936;-63
2023/08/07 06:00:28;;;;;;;;;;;;;;;;;;5005032;28;19980;-64
2023/08/07 06:02:54;;;;;;;;;;;;;;;;;;5005127;28;20036;-63
2023/08/07 06:05:20;;;;;;;;;;;;;;;;;;5004209;28;20023;-63
2023/08/07 06:07:46;;;;;;;;;;;;;;;;;;5003423;28;19933;-63
2023/08/07 06:10:12;;;;;;;;;;;;;;;;;;5004930;28;20298;-63
2023/08/07 06:12:40;;;;;;;;;;;;;;;;;;5003767;28;20418;-64
2023/08/07 06:15:05;;;;;;;;;;;;;;;;;;5003994;28;20005;-63
2023/08/07 06:17:31;;;;;;;;;;;;;;;;;;5004258;28;19944;-63
2023/08/07 06:19:57;;;;;;;;;;;;;;;;;;5003346;28;20008;-64
2023/08/07 06:22:23;;;;;;;;;;;;;;;;;;5004401;28;19986;-63
2023/08/07 06:24:49;;;;;;;;;;;;;;;;;;5003917;28;19921;-63
2023/08/07 06:27:15;;;;;;;;;;;;;;;;;;5004232;28;19925;-63
2023/08/07 06:29:41;;;;;;;;;;;;;;;;;;5003522;28;19961;-64
2023/08/07 06:32:07;;;;;;;;;;;;;;;;;;5003381;28;19925;-63
2023/08/07 06:34:33;;;;;;;;;;;;;;;;;;5004130;28;20430;-63
2023/08/07 06:36:59;;;;;;;;;;;;;;;;;;5003775;28;19921;-63
2023/08/07 06:39:25;;;;;;;;;;;;;;;;;;5003628;28;20547;-63
2023/08/07 06:41:51;;;;;;;;;;;;;;;;;;5003962;28;20409;-64
2023/08/07 06:44:17;;;;;;;;;;;;;;;;;;4985796;28;20727;-63
2023/08/07 06:46:42;;;;;;;;;;;;;;;;;;4991581;28;19964;-63
2023/08/07 06:49:08;;;;;;;;;;;;;;;;;;5003338;28;20012;-63
2023/08/07 06:51:34;;;;;;;;;;;;;;;;;;5003744;28;19926;-63
2023/08/07 06:54:00;;;;;;;;;;;;;;;;;;5002906;28;20585;-63
2023/08/07 06:56:26;;;;;;;;;;;;;;;;;;5003600;28;19929;-64
2023/08/07 06:58:52;;;;;;;;;;;;;;;;;;4990263;28;19929;-63
2023/08/07 07:01:18;;;;;;;;;;;;;;;;;;5003679;28;19933;-62
2023/08/07 07:03:46;;;;;;;;;;;;;;;;;;5002975;28;19925;-63
2023/08/07 07:06:13;;;;;;;;;;;;;;;;;;4986346;28;19979;-63
2023/08/07 07:08:38;;;;;;;;;;;;;;;;;;5001750;28;19926;-63
2023/08/07 07:11:04;;;;;;;;;;;;;;;;;;5002716;28;19925;-62
2023/08/07 07:13:30;;;;;;;;;;;;;;;;;;5002623;28;19925;-63
2023/08/07 07:15:56;;;;;;;;;;;;;;;;;;5003164;28;19975;-65
2023/08/07 07:18:22;;;;;;;;;;;;;;;;;;5002677;28;20020;-65
2023/08/07 07:20:48;;;;;;;;;;;;;;;;;;5002316;28;19926;-65
2023/08/07 07:23:14;;;;;;;;;;;;;;;;;;5002413;28;20355;-65
2023/08/07 07:25:40;;;;;;;;;;;;;;;;;;5001860;28;19925;-66
2023/08/07 07:28:06;;;;;;;;;;;;;;;;;;4982908;28;19945;-65
2023/08/07 07:30:32;;;;;;;;;;;;;;;;;;4993959;28;20401;-65
2023/08/07 07:32:58;;;;;;;;;;;;;;;;;;4995639;28;19936;-65
2023/08/07 07:35:24;;;;;;;;;;;;;;;;;;5001394;28;19926;-65
2023/08/07 07:37:50;;;;;;;;;;;;;;;;;;4991897;28;19936;-65
2023/08/07 07:40:16;;;;;;;;;;;;;;;;;;4987979;28;19926;-66
2023/08/07 07:42:42;;;;;;;;;;;;;;;;;;4983544;28;19926;-65
2023/08/07 07:45:07;;;;;;;;;;;;;;;;;;4996613;28;19933;-65
2023/08/07 07:47:33;;;;;;;;;;;;;;;;;;4983148;28;19930;-65
2023/08/07 07:49:59;;;;;;;;;;;;;;;;;;5003648;28;19933;-64
2023/08/07 07:52:25;;;;;;;;;;;;;;;;;;5007091;28;19926;-65
2023/08/07 07:54:51;;;;;;;;;;;;;;;;;;4990725;28;19933;-66
2023/08/07 07:57:17;;;;;;;;;;;;;;;;;;5004369;28;19930;-65
2023/08/07 07:59:43;;;;;;;;;;;;;;;;;;4996992;28;20132;-65
2023/08/07 08:02:09;;;;;;;;;;;;;;;;;;5003452;28;20051;-65
2023/08/07 08:04:35;;;;;;;;;;;;;;;;;;5006830;28;19925;-65
2023/08/07 08:07:01;;;;;;;;;;;;;;;;;;5006742;28;19925;-65
2023/08/07 08:09:27;;;;;;;;;;;;;;;;;;5006408;28;20383;-66
2023/08/07 08:11:53;;;;;;;;;;;;;;;;;;5006392;28;19929;-64
2023/08/07 08:14:19;;;;;;;;;;;;;;;;;;5006400;28;19925;-66
2023/08/07 08:16:45;;;;;;;;;;;;;;;;;;5006821;28;19925;-65
2023/08/07 08:19:11;;;;;;;;;;;;;;;;;;5006659;28;19925;-66
2023/08/07 08:21:37;;;;;;;;;;;;;;;;;;5006528;28;19925;-66
2023/08/07 08:24:03;;;;;;;;;;;;;;;;;;5005082;28;19931;-66
2023/08/07 08:26:29;;;;;;;;;;;;;;;;;;5006626;28;20060;-66
2023/08/07 08:28:55;;;;;;;;;;;;;;;;;;5005977;28;19929;-66
2023/08/07 08:31:22;;;;;;;;;;;;;;;;;;4993605;28;20398;-64
2023/08/07 08:33:48;;;;;;;;;;;;;;;;;;4984622;28;19945;-65
2023/08/07 08:36:13;;;;;;;;;;;;;;;;;;4983588;28;20343;-64
2023/08/07 08:38:39;;;;;;;;;;;;;;;;;;4994506;28;20796;-64
2023/08/07 08:41:05;;;;;;;;;;;;;;;;;;4985625;28;19980;-64
2023/08/07 08:43:31;;;;;;;;;;;;;;;;;;4983909;28;19936;-66
2023/08/07 08:45:57;;;;;;;;;;;;;;;;;;4984161;28;20624;-63
2023/08/07 08:48:23;;;;;;;;;;;;;;;;;;4983165;28;19930;-65
2023/08/07 08:50:50;;;;;;;;;;;;;;;;;;4984059;28;19940;-65
2023/08/07 08:53:16;;;;;;;;;;;;;;;;;;4983087;28;19929;-65
2023/08/07 08:55:46;;;;;;;;;;;;;;;;;;4984121;28;20027;-66
2023/08/07 08:58:12;;;;;;;;;;;;;;;;;;4983345;28;19945;-65
2023/08/07 09:00:38;;;;;;;;;;;;;;;;;;4995099;28;19933;-65
2023/08/07 09:03:03;;;;;;;;;;;;;;;;;;4985309;28;19949;-66
2023/08/07 09:05:29;;;;;;;;;;;;;;;;;;5002698;28;19933;-65
2023/08/07 09:07:55;;;;;;;;;;;;;;;;;;5000588;28;20350;-65
2023/08/07 09:10:21;;;;;;;;;;;;;;;;;;4998485;28;20081;-65
2023/08/07 09:12:47;;;;;;;;;;;;;;;;;;4965392;28;20433;-65
2023/08/07 09:15:13;;;;;;;;;;;;;;;;;;4988760;28;20126;-66
2023/08/07 09:17:40;;;;;;;;;;;;;;;;;;5002688;28;20414;-66
2023/08/07 09:20:06;;;;;;;;;;;;;;;;;;5003014;28;20016;-66
2023/08/07 09:22:32;;;;;;;;;;;;;;;;;;5002585;28;20072;-67
2023/08/07 09:24:59;;;;;;;;;;;;;;;;;;5002239;28;20051;-66
2023/08/07 09:27:25;;;;;;;;;;;;;;;;;;5003058;28;19929;-65
2023/08/07 09:29:51;;;;;;;;;;;;;;;;;;5002998;28;19935;-65
2023/08/07 09:32:18;;;;;;;;;;;;;;;;;;5003400;28;20442;-66
2023/08/07 09:34:44;;;;;;;;;;;;;;;;;;5002967;28;19937;-65
2023/08/07 09:37:10;;;;;;;;;;;;;;;;;;4996872;28;19933;-65
2023/08/07 09:39:36;;;;;;;;;;;;;;;;;;4993965;28;19937;-66
2023/08/07 09:42:02;;;;;;;;;;;;;;;;;;5001888;28;20079;-66
2023/08/07 09:44:28;;;;;;;;;;;;;;;;;;4994537;28;20028;-65
2023/08/07 09:46:54;;;;;;;;;;;;;;;;;;4983227;28;19926;-64
2023/08/07 09:49:19;;;;;;;;;;;;;;;;;;4981761;28;19933;-65
2023/08/07 09:51:45;;;;;;;;;;;;;;;;;;4982906;28;20340;-64
2023/08/07 09:54:11;;;;;;;;;;;;;;;;;;4982153;28;19930;-67
2023/08/07 09:56:37;;;;;;;;;;;;;;;;;;4983489;28;19952;-66
2023/08/07 09:59:04;;;;;;;;;;;;;;;;;;4982583;28;20371;-66
2023/08/07 10:01:29;;;;;;;;;;;;;;;;;;4982479;28;19934;-67
2023/08/07 10:03:56;;;;;;;;;;;;;;;;;;4983078;28;20044;-64
2023/08/07 10:06:22;;;;;;;;;;;;;;;;;;4982348;28;19934;-66
2023/08/07 10:08:48;;;;;;;;;;;;;;;;;;4981741;28;19929;-65
2023/08/07 10:11:14;;;;;;;;;;;;;;;;;;4981955;28;19944;-65
2023/08/07 10:13:40;;;;;;;;;;;;;;;;;;4981740;28;19933;-66
2023/08/07 10:16:06;;;;;;;;;;;;;;;;;;4982115;28;19930;-66
2023/08/07 10:18:32;;;;;;;;;;;;;;;;;;4982657;28;20466;-66
2023/08/07 10:20:58;;;;;;;;;;;;;;;;;;4983112;28;20016;-65
2023/08/07 10:23:24;;;;;;;;;;;;;;;;;;4982431;28;20426;-65
2023/08/07 10:25:49;;;;;;;;;;;;;;;;;;4997220;28;19936;-66
2023/08/07 10:28:15;;;;;;;;;;;;;;;;;;4988856;28;19921;-66
2023/08/07 10:30:41;;;;;;;;;;;;;;;;;;4992431;28;19930;-65
2023/08/07 10:33:07;;;;;;;;;;;;;;;;;;4984712;28;19926;-65
2023/08/07 10:35:33;;;;;;;;;;;;;;;;;;4984634;28;19925;-65
2023/08/07 10:37:59;;;;;;;;;;;;;;;;;;4983508;28;19937;-66
2023/08/07 10:40:26;;;;;;;;;;;;;;;;;;4984244;28;19932;-66
2023/08/07 10:42:52;;;;;;;;;;;;;;;;;;4984002;28;20043;-65
2023/08/07 10:45:21;;;;;;;;;;;;;;;;;;4984018;28;20035;-65
2023/08/07 10:47:47;;;;;;;;;;;;;;;;;;4984054;28;19925;-66
2023/08/07 10:50:13;;;;;;;;;;;;;;;;;;4983579;28;20522;-66
2023/08/07 10:52:39;;;;;;;;;;;;;;;;;;4982939;28;19933;-66
2023/08/07 10:55:05;;;;;;;;;;;;;;;;;;4983948;28;19929;-65
2023/08/07 10:57:31;;;;;;;;;;;;;;;;;;4983932;28;20260;-65
2023/08/07 10:59:57;;;;;;;;;;;;;;;;;;4984033;28;20391;-65
2023/08/07 11:02:23;;;;;;;;;;;;;;;;;;4983742;28;19929;-65
2023/08/07 11:04:49;;;;;;;;;;;;;;;;;;4982371;28;19972;-65
2023/08/07 11:07:15;;;;;;;;;;;;;;;;;;4983207;28;19929;-66
2023/08/07 11:09:40;;;;;;;;;;;;;;;;;;4983928;28;19925;-65
2023/08/07 11:12:06;;;;;;;;;;;;;;;;;;4983600;28;20439;-65
2023/08/07 11:14:33;;;;;;;;;;;;;;;;;;4992108;28;19933;-65
2023/08/07 11:16:59;;;;;;;;;;;;;;;;;;5001147;28;20047;-65
2023/08/07 11:19:25;;;;;;;;;;;;;;;;;;4984711;28;20614;-66
2023/08/07 11:21:51;;;;;;;;;;;;;;;;;;4983005;28;20009;-65
2023/08/07 11:24:20;;;;;;;;;;;;;;;;;;5000720;28;19927;-65
2023/08/07 11:26:45;;;;;;;;;;;;;;;;;;4992508;28;19926;-65
2023/08/07 11:29:11;;;;;;;;;;;;;;;;;;4983415;28;20268;-67
2023/08/07 11:31:37;;;;;;;;;;;;;;;;;;4983919;28;19926;-66
2023/08/07 11:34:03;;;;;;;;;;;;;;;;;;4983781;28;19948;-65
2023/08/07 11:36:29;;;;;;;;;;;;;;;;;;4983487;28;20502;-65
2023/08/07 11:38:55;;;;;;;;;;;;;;;;;;4988935;28;20822;-66
2023/08/07 11:41:21;;;;;;;;;;;;;;;;;;4989737;28;19933;-68
2023/08/07 11:43:47;;;;;;;;;;;;;;;;;;5003155;28;19929;-67
2023/08/07 11:46:13;;;;;;;;;;;;;;;;;;5003094;28;19956;-66
2023/08/07 11:48:39;;;;;;;;;;;;;;;;;;5003369;28;20016;-66
2023/08/07 11:51:05;;;;;;;;;;;;;;;;;;5003081;28;19926;-66
2023/08/07 11:53:31;;;;;;;;;;;;;;;;;;5001511;28;19930;-67
2023/08/07 11:55:57;;;;;;;;;;;;;;;;;;5002646;28;20342;-66
2023/08/07 11:58:23;;;;;;;;;;;;;;;;;;5002106;28;19929;-66
2023/08/07 12:00:49;;;;;;;;;;;;;;;;;;5001580;28;19980;-66
2023/08/07 12:03:15;;;;;;;;;;;;;;;;;;5001813;28;20167;-67
2023/08/07 12:05:41;;;;;;;;;;;;;;;;;;5001518;28;19929;-66
2023/08/07 12:08:07;;;;;;;;;;;;;;;;;;5000792;28;19921;-66
2023/08/07 12:10:33;;;;;;;;;;;;;;;;;;5002145;28;19971;-66
2023/08/07 12:13:01;;;;;;;;;;;;;;;;;;5002836;28;19925;-67
2023/08/07 12:15:27;;;;;;;;;;;;;;;;;;5002690;28;19925;-67
2023/08/07 12:17:53;;;;;;;;;;;;;;;;;;5002252;28;19934;-66
2023/08/07 12:20:19;;;;;;;;;;;;;;;;;;4984802;28;19936;-66
2023/08/07 12:22:45;;;;;;;;;;;;;;;;;;5002958;28;19925;-67
2023/08/07 12:25:11;;;;;;;;;;;;;;;;;;5003025;28;20000;-66
2023/08/07 12:27:37;;;;;;;;;;;;;;;;;;5002233;28;19945;-66
2023/08/07 12:30:03;;;;;;;;;;;;;;;;;;5003004;28;19949;-65
2023/08/07 12:32:29;;;;;;;;;;;;;;;;;;5003038;28;19930;-66
2023/08/07 12:34:55;;;;;;;;;;;;;;;;;;5005109;28;20000;-65
2023/08/07 12:37:22;;;;;;;;;;;;;;;;;;5006194;28;19975;-66
2023/08/07 12:39:48;;;;;;;;;;;;;;;;;;5006158;28;19937;-66
2023/08/07 12:42:14;;;;;;;;;;;;;;;;;;5006000;28;20446;-66
2023/08/07 12:44:40;;;;;;;;;;;;;;;;;;4988598;28;19925;-66
2023/08/07 12:47:06;;;;;;;;;;;;;;;;;;5006129;28;19926;-66
2023/08/07 12:49:32;;;;;;;;;;;;;;;;;;5005962;28;20452;-66
2023/08/07 12:51:58;;;;;;;;;;;;;;;;;;5004926;28;20461;-66
2023/08/07 12:54:24;;;;;;;;;;;;;;;;;;4988460;28;20012;-67
2023/08/07 12:56:50;;;;;;;;;;;;;;;;;;5005773;28;20119;-66
2023/08/07 12:59:16;;;;;;;;;;;;;;;;;;5005580;28;19936;-66
2023/08/07 13:01:43;;;;;;;;;;;;;;;;;;5006198;28;19925;-66
2023/08/07 13:04:08;;;;;;;;;;;;;;;;;;5005254;28;19925;-66
2023/08/07 13:06:34;;;;;;;;;;;;;;;;;;5005223;28;19971;-66
2023/08/07 13:09:00;;;;;;;;;;;;;;;;;;5005967;28;19929;-67
2023/08/07 13:11:26;;;;;;;;;;;;;;;;;;5006292;28;19926;-66
2023/08/07 13:13:52;;;;;;;;;;;;;;;;;;5005408;28;19936;-66
2023/08/07 13:16:18;;;;;;;;;;;;;;;;;;5004875;28;19931;-66
2023/08/07 13:18:44;;;;;;;;;;;;;;;;;;5005431;28;19926;-66
2023/08/07 13:21:10;;;;;;;;;;;;;;;;;;5005349;28;19979;-65
2023/08/07 13:23:36;;;;;;;;;;;;;;;;;;5004849;28;19925;-65
2023/08/07 13:26:02;;;;;;;;;;;;;;;;;;5005438;28;20401;-65
2023/08/07 13:28:28;;;;;;;;;;;;;;;;;;5005121;28;19926;-66
2023/08/07 13:30:56;;;;;;;;;;;;;;;;;;5004941;28;19940;-66
2023/08/07 13:33:22;;;;;;;;;;;;;;;;;;5004682;28;19926;-66
2023/08/07 13:35:48;;;;;;;;;;;;;;;;;;5005661;28;19925;-66
2023/08/07 13:38:15;;;;;;;;;;;;;;;;;;5003606;28;19960;-66
2023/08/07 13:40:40;;;;;;;;;;;;;;;;;;5004833;28;19929;-66
2023/08/07 13:43:09;;;;;;;;;;;;;;;;;;5005166;28;19972;-67
2023/08/07 13:45:35;;;;;;;;;;;;;;;;;;5003744;28;20008;-66
2023/08/07 13:48:02;;;;;;;;;;;;;;;;;;5004172;28;20567;-67
2023/08/07 13:50:27;;;;;;;;;;;;;;;;;;5005243;28;19926;-67
2023/08/07 13:52:53;;;;;;;;;;;;;;;;;;5004084;28;19937;-66
2023/08/07 13:55:19;;;;;;;;;;;;;;;;;;5004522;28;20383;-66
2023/08/07 13:57:45;;;;;;;;;;;;;;;;;;5003916;28;19933;-66
2023/08/07 14:00:11;;;;;;;;;;;;;;;;;;5004819;28;19926;-66
2023/08/07 14:02:37;;;;;;;;;;;;;;;;;;5004911;28;19977;-66
2023/08/07 14:05:04;;;;;;;;;;;;;;;;;;5004227;28;19937;-66
2023/08/07 14:07:29;;;;;;;;;;;;;;;;;;5003874;28;19929;-65
2023/08/07 14:09:56;;;;;;;;;;;;;;;;;;5004628;28;19925;-65
2023/08/07 14:12:22;;;;;;;;;;;;;;;;;;5004409;28;19972;-66
2023/08/07 14:14:48;;;;;;;;;;;;;;;;;;5003437;28;19925;-66
2023/08/07 14:17:14;;;;;;;;;;;;;;;;;;5004314;28;19929;-65
2023/08/07 14:19:40;;;;;;;;;;;;;;;;;;5003832;28;19926;-66
2023/08/07 14:22:05;;;;;;;;;;;;;;;;;;5003647;28;20307;-66
2023/08/07 14:24:31;;;;;;;;;;;;;;;;;;5004149;28;19925;-63
2023/08/07 14:26:57;;;;;;;;;;;;;;;;;;4990191;28;20000;-65
2023/08/07 14:29:23;;;;;;;;;;;;;;;;;;4984045;28;20264;-65
2023/08/07 14:31:49;;;;;;;;;;;;;;;;;;4989839;28;20390;-65
2023/08/07 14:34:15;;;;;;;;;;;;;;;;;;4985343;28;19926;-65
2023/08/07 14:36:41;;;;;;;;;;;;;;;;;;4983337;28;19930;-65
2023/08/07 14:39:07;;;;;;;;;;;;;;;;;;4984187;28;19929;-67
2023/08/07 14:41:33;;;;;;;;;;;;;;;;;;4984315;28;19937;-66
2023/08/07 14:43:59;;;;;;;;;;;;;;;;;;4987205;28;20429;-64
2023/08/07 14:46:25;;;;;;;;;;;;;;;;;;5002231;28;19933;-65
2023/08/07 14:48:51;;;;;;;;;;;;;;;;;;4966909;28;19934;-64
2023/08/07 14:51:17;;;;;;;;;;;;;;;;;;4983602;28;19971;-62
2023/08/07 14:53:43;;;;;;;;;;;;;;;;;;4983524;28;19941;-64
2023/08/07 14:56:09;;;;;;;;;;;;;;;;;;4983796;28;19925;-66
2023/08/07 14:58:34;;;;;;;;;;;;;;;;;;4983599;28;20397;-65
2023/08/07 15:01:00;;;;;;;;;;;;;;;;;;4984232;28;19932;-65
2023/08/07 15:03:26;;;;;;;;;;;;;;;;;;4984011;28;19928;-65
2023/08/07 15:05:52;;;;;;;;;;;;;;;;;;4984073;28;19936;-66
2023/08/07 15:08:18;;;;;;;;;;;;;;;;;;4982947;28;20358;-65
2023/08/07 15:10:44;;;;;;;;;;;;;;;;;;4984130;28;20419;-65
2023/08/07 15:13:10;;;;;;;;;;;;;;;;;;4983997;28;20368;-65
2023/08/07 15:15:36;;;;;;;;;;;;;;;;;;5001834;28;20650;-65
2023/08/07 15:18:03;;;;;;;;;;;;;;;;;;5003920;28;19986;-63
2023/08/07 15:20:29;;;;;;;;;;;;;;;;;;5003201;28;19926;-65
2023/08/07 15:22:55;;;;;;;;;;;;;;;;;;5003159;28;19932;-65
2023/08/07 15:25:21;;;;;;;;;;;;;;;;;;5003310;28;20035;-64
2023/08/07 15:27:47;;;;;;;;;;;;;;;;;;4985766;28;19926;-65
2023/08/07 15:30:13;;;;;;;;;;;;;;;;;;5003366;28;19930;-64
2023/08/07 15:32:40;;;;;;;;;;;;;;;;;;4985072;28;20564;-64
2023/08/07 15:35:06;;;;;;;;;;;;;;;;;;4985926;28;19926;-64
2023/08/07 15:37:32;;;;;;;;;;;;;;;;;;5003001;28;19932;-62
2023/08/07 15:39:58;;;;;;;;;;;;;;;;;;5003456;28;20052;-64
2023/08/07 15:42:24;;;;;;;;;;;;;;;;;;4985401;28;19926;-64
2023/08/07 15:44:50;;;;;;;;;;;;;;;;;;5002954;28;20012;-64
2023/08/07 15:47:16;;;;;;;;;;;;;;;;;;5002779;28;20522;-63
2023/08/07 15:49:44;;;;;;;;;;;;;;;;;;5003301;28;20012;-64
2023/08/07 15:52:10;;;;;;;;;;;;;;;;;;5002379;28;19932;-64
2023/08/07 15:54:36;;;;;;;;;;;;;;;;;;5003104;28;20375;-64
2023/08/07 15:57:02;;;;;;;;;;;;;;;;;;5002588;28;20012;-65
2023/08/07 15:59:28;;;;;;;;;;;;;;;;;;5003052;28;19929;-65
2023/08/07 16:01:54;;;;;;;;;;;;;;;;;;5003303;28;20024;-64
2023/08/07 16:04:19;;;;;;;;;;;;;;;;;;5002906;28;19921;-65
2023/08/07 16:06:45;;;;;;;;;;;;;;;;;;5002274;28;19933;-64
2023/08/07 16:09:11;;;;;;;;;;;;;;;;;;5002110;28;19930;-65
2023/08/07 16:11:37;;;;;;;;;;;;;;;;;;4987442;28;19964;-66
2023/08/07 16:14:03;;;;;;;;;;;;;;;;;;4987897;28;19972;-65
2023/08/07 16:16:29;;;;;;;;;;;;;;;;;;5000783;28;19933;-66
2023/08/07 16:18:55;;;;;;;;;;;;;;;;;;4999431;28;19968;-65
2023/08/07 16:21:21;;;;;;;;;;;;;;;;;;4986680;28;19981;-65
2023/08/07 16:23:47;;;;;;;;;;;;;;;;;;4969986;28;19980;-65
2023/08/07 16:26:13;;;;;;;;;;;;;;;;;;5005976;28;19936;-64
2023/08/07 16:28:39;;;;;;;;;;;;;;;;;;5006261;28;19921;-65
2023/08/07 16:31:05;;;;;;;;;;;;;;;;;;5006208;28;19976;-65
2023/08/07 16:33:30;;;;;;;;;;;;;;;;;;5006168;28;19925;-66
2023/08/07 16:35:56;;;;;;;;;;;;;;;;;;5006213;28;20064;-64